createdAt,value
2019-03-08T00:01:50.030Z,8.30
2019-03-08T00:04:39.340Z,8.30
2019-03-08T00:07:28.605Z,8.20
2019-03-08T00:10:17.458Z,8.20
2019-03-08T00:13:06.320Z,8.20
2019-03-08T00:15:56.097Z,8.20
2019-03-08T00:18:45.063Z,8.10
2019-03-08T00:21:34.431Z,8.00
2019-03-08T00:24:23.950Z,7.90
2019-03-08T00:27:12.967Z,7.90
2019-03-08T00:30:02.318Z,7.80
2019-03-08T00:32:51.819Z,7.80
2019-03-08T00:35:40.904Z,7.70
2019-03-08T00:38:30.259Z,7.70
2019-03-08T00:41:19.619Z,7.70
2019-03-08T00:44:08.925Z,7.70
2019-03-08T00:46:57.751Z,7.60
2019-03-08T00:49:46.569Z,7.60
2019-03-08T00:52:35.168Z,7.50
2019-03-08T00:55:24.210Z,7.50
2019-03-08T00:58:14.627Z,7.50
2019-03-08T01:01:03.168Z,7.50
2019-03-08T01:03:52.545Z,7.40
2019-03-08T01:06:41.650Z,7.40
2019-03-08T01:09:30.784Z,7.40
2019-03-08T01:12:19.867Z,7.30
2019-03-08T01:15:16.214Z,7.30
2019-03-08T01:18:05.875Z,7.20
2019-03-08T01:20:55.570Z,7.20
2019-03-08T01:23:44.711Z,7.20
2019-03-08T01:26:34.007Z,7.10
2019-03-08T01:29:23.373Z,7.10
2019-03-08T01:32:12.515Z,7.10
2019-03-08T01:35:01.374Z,7.10
2019-03-08T01:37:50.672Z,7.10
2019-03-08T01:40:40.185Z,7.10
2019-03-08T01:43:29.306Z,7.10
2019-03-08T01:46:18.146Z,7.10
2019-03-08T01:49:07.740Z,7.10
2019-03-08T01:51:57.399Z,7.00
2019-03-08T01:54:46.468Z,7.00
2019-03-08T01:57:35.887Z,7.00
2019-03-08T02:00:25.297Z,7.00
2019-03-08T02:03:17.119Z,7.00
2019-03-08T02:06:05.789Z,7.00
2019-03-08T02:08:54.959Z,6.90
2019-03-08T02:11:44.247Z,6.90
2019-03-08T02:14:33.178Z,6.90
2019-03-08T02:17:22.772Z,6.90
2019-03-08T02:20:20.723Z,6.90
2019-03-08T02:23:09.817Z,6.90
2019-03-08T02:25:59.352Z,6.90
2019-03-08T02:28:48.414Z,6.80
2019-03-08T02:31:37.193Z,6.80
2019-03-08T02:34:26.891Z,6.80
2019-03-08T02:37:16.264Z,6.80
2019-03-08T02:40:26.523Z,6.80
2019-03-08T02:43:18.244Z,6.70
2019-03-08T02:46:07.628Z,6.80
2019-03-08T02:48:56.933Z,6.80
2019-03-08T02:51:46.090Z,6.80
2019-03-08T02:54:35.122Z,6.80
2019-03-08T02:57:24.265Z,6.80
2019-03-08T03:00:17.044Z,6.80
2019-03-08T03:03:05.869Z,6.80
2019-03-08T03:05:55.777Z,6.80
2019-03-08T03:08:44.848Z,6.90
2019-03-08T03:11:34.318Z,6.80
2019-03-08T03:14:23.996Z,6.90
2019-03-08T03:17:13.291Z,6.80
2019-03-08T03:20:02.587Z,6.80
2019-03-08T03:22:51.285Z,6.80
2019-03-08T03:25:40.667Z,6.80
2019-03-08T03:28:29.628Z,6.90
2019-03-08T03:31:19.307Z,6.90
2019-03-08T03:34:08.132Z,6.90
2019-03-08T03:36:57.857Z,6.90
2019-03-08T03:39:47.235Z,6.90
2019-03-08T03:42:36.583Z,6.90
2019-03-08T03:45:25.820Z,6.90
2019-03-08T03:48:14.827Z,6.90
2019-03-08T03:51:03.447Z,6.90
2019-03-08T03:53:52.955Z,6.90
2019-03-08T03:56:41.428Z,6.90
2019-03-08T03:59:30.985Z,6.90
2019-03-08T04:02:19.854Z,6.90
2019-03-08T04:05:10.146Z,6.90
2019-03-08T04:07:59.141Z,6.90
2019-03-08T04:10:48.665Z,6.90
2019-03-08T04:13:37.826Z,6.90
2019-03-08T04:16:26.671Z,6.90
2019-03-08T04:19:16.050Z,6.90
2019-03-08T04:22:05.144Z,6.90
2019-03-08T04:24:55.632Z,6.90
2019-03-08T04:27:44.686Z,6.90
2019-03-08T04:30:34.365Z,6.90
2019-03-08T04:33:23.649Z,6.90
2019-03-08T04:36:12.503Z,6.90
2019-03-08T04:39:01.495Z,6.90
2019-03-08T04:41:50.431Z,7.00
2019-03-08T04:44:39.163Z,6.90
2019-03-08T04:47:28.475Z,6.90
2019-03-08T04:50:18.044Z,6.90
2019-03-08T04:53:07.356Z,6.90
2019-03-08T04:55:56.275Z,6.90
2019-03-08T04:58:45.323Z,6.90
2019-03-08T05:01:34.354Z,6.90
2019-03-08T05:04:23.768Z,7.00
2019-03-08T05:07:13.652Z,6.90
2019-03-08T05:10:02.509Z,6.90
2019-03-08T05:12:51.362Z,7.00
2019-03-08T05:15:40.136Z,7.00
2019-03-08T05:18:29.386Z,7.00
2019-03-08T05:21:18.225Z,7.00
2019-03-08T05:24:08.006Z,7.00
2019-03-08T05:26:56.984Z,6.90
2019-03-08T05:29:46.770Z,6.90
2019-03-08T05:32:35.751Z,6.90
2019-03-08T05:35:25.117Z,6.90
2019-03-08T05:38:13.757Z,6.90
2019-03-08T05:41:03.078Z,6.90
2019-03-08T05:43:53.402Z,6.90
2019-03-08T05:46:42.503Z,6.90
2019-03-08T05:49:32.170Z,6.90
2019-03-08T05:52:20.864Z,6.90
2019-03-08T05:55:12.143Z,6.80
2019-03-08T05:58:01.169Z,6.80
2019-03-08T06:00:50.988Z,6.90
2019-03-08T06:03:39.982Z,6.80
2019-03-08T06:06:28.715Z,6.90
2019-03-08T06:09:18.226Z,6.90
2019-03-08T06:12:06.940Z,6.90
2019-03-08T06:14:56.291Z,6.80
2019-03-08T06:17:46.196Z,6.80
2019-03-08T06:20:35.828Z,6.80
2019-03-08T06:23:25.243Z,6.80
2019-03-08T06:26:14.718Z,6.70
2019-03-08T06:29:03.448Z,6.70
2019-03-08T06:31:52.339Z,6.60
2019-03-08T06:34:41.625Z,6.60
2019-03-08T06:37:30.874Z,6.50
2019-03-08T06:40:20.082Z,6.50
2019-03-08T06:43:09.314Z,6.50
2019-03-08T06:45:58.168Z,6.50
2019-03-08T06:48:47.542Z,6.50
2019-03-08T06:51:36.647Z,6.60
2019-03-08T06:54:25.813Z,6.50
2019-03-08T06:57:14.720Z,6.50
2019-03-08T07:00:06.300Z,6.50
2019-03-08T07:02:54.957Z,6.50
2019-03-08T07:05:44.596Z,6.50
2019-03-08T07:08:33.785Z,6.60
2019-03-08T07:11:22.405Z,6.50
2019-03-08T07:14:11.214Z,6.60
2019-03-08T07:17:00.549Z,6.60
2019-03-08T07:19:52.431Z,6.60
2019-03-08T07:23:01.032Z,6.70
2019-03-08T07:26:01.833Z,6.60
2019-03-08T07:29:08.679Z,6.60
2019-03-08T07:31:59.116Z,6.50
2019-03-08T07:35:05.666Z,6.50
2019-03-08T07:38:04.593Z,6.30
2019-03-08T07:40:55.209Z,6.40
2019-03-08T07:44:02.170Z,6.30
2019-03-08T07:46:55.258Z,6.30
2019-03-08T07:49:46.105Z,6.30
2019-03-08T07:52:36.838Z,6.30
2019-03-08T07:55:42.992Z,6.40
2019-03-08T07:58:33.658Z,6.50
2019-03-08T08:01:40.764Z,6.60
2019-03-08T08:04:31.396Z,6.70
2019-03-08T08:07:27.976Z,6.80
2019-03-08T08:10:27.649Z,7.00
2019-03-08T08:13:16.115Z,7.00
2019-03-08T08:16:06.827Z,7.10
2019-03-08T08:18:57.134Z,7.10
2019-03-08T08:21:50.223Z,7.10
2019-03-08T08:24:43.938Z,7.10
2019-03-08T08:27:40.524Z,7.10
2019-03-08T08:30:31.652Z,7.00
2019-03-08T08:33:20.090Z,7.00
2019-03-08T08:36:13.679Z,7.00
2019-03-08T08:39:13.016Z,6.80
2019-03-08T08:42:19.172Z,6.70
2019-03-08T08:45:14.000Z,6.50
2019-03-08T08:48:04.246Z,6.70
2019-03-08T08:51:03.882Z,7.20
2019-03-08T08:54:00.163Z,7.50
2019-03-08T08:56:50.890Z,7.90
2019-03-08T08:59:41.619Z,8.10
2019-03-08T09:02:37.754Z,8.10
2019-03-08T09:05:36.873Z,8.00
2019-03-08T09:08:30.529Z,8.00
2019-03-08T09:11:44.267Z,8.00
2019-03-08T09:14:28.471Z,8.00
2019-03-08T09:17:21.813Z,8.30
2019-03-08T09:20:15.295Z,8.50
2019-03-08T09:23:08.571Z,8.70
2019-03-08T09:26:17.045Z,8.70
2019-03-08T09:29:19.719Z,8.70
2019-03-08T09:32:26.075Z,8.70
2019-03-08T09:35:16.686Z,8.50
2019-03-08T09:38:07.283Z,8.20
2019-03-08T09:41:05.422Z,8.10
2019-03-08T09:44:11.384Z,8.30
2019-03-08T09:47:06.338Z,8.40
2019-03-08T09:49:57.300Z,8.40
2019-03-08T09:52:56.850Z,8.10
2019-03-08T09:55:48.149Z,8.00
2019-03-08T09:58:42.864Z,8.10
2019-03-08T10:01:51.664Z,8.10
2019-03-08T10:05:00.830Z,8.20
2019-03-08T10:08:08.129Z,8.60
2019-03-08T10:10:58.290Z,9.20
2019-03-08T10:14:05.189Z,9.30
2019-03-08T10:16:58.773Z,9.20
2019-03-08T10:19:55.159Z,8.80
2019-03-08T10:22:51.611Z,8.60
2019-03-08T10:25:42.750Z,8.30
2019-03-08T10:28:48.637Z,8.30
2019-03-08T10:31:40.738Z,8.40
2019-03-08T10:34:32.686Z,8.50
2019-03-08T10:37:23.578Z,8.80
2019-03-08T10:40:26.305Z,8.80
2019-03-08T10:43:16.608Z,8.90
2019-03-08T10:46:23.944Z,9.40
2019-03-08T10:49:14.702Z,9.50
2019-03-08T10:52:04.966Z,9.60
2019-03-08T10:54:55.367Z,9.70
2019-03-08T10:57:46.193Z,9.30
2019-03-08T11:00:39.231Z,9.10
2019-03-08T11:03:32.292Z,9.10
2019-03-08T11:06:38.233Z,8.90
2019-03-08T11:09:40.273Z,8.60
2019-03-08T11:12:31.510Z,8.60
2019-03-08T11:15:34.466Z,8.60
2019-03-08T11:18:30.857Z,9.10
2019-03-08T11:21:20.833Z,9.50
2019-03-08T11:24:13.172Z,9.80
2019-03-08T11:27:05.206Z,10.00
2019-03-08T11:29:54.822Z,10.10
2019-03-08T11:32:51.021Z,9.80
2019-03-08T11:35:40.388Z,9.80
2019-03-08T11:38:30.176Z,9.80
2019-03-08T11:41:23.207Z,9.40
2019-03-08T11:44:29.500Z,9.20
2019-03-08T11:47:25.395Z,9.00
2019-03-08T11:50:33.520Z,8.80
2019-03-08T11:53:29.318Z,8.80
2019-03-08T11:56:25.243Z,9.00
2019-03-08T11:59:15.967Z,9.20
2019-03-08T12:02:10.033Z,9.50
2019-03-08T12:05:01.899Z,9.90
2019-03-08T12:07:54.709Z,10.30
2019-03-08T12:10:56.416Z,10.50
2019-03-08T12:14:02.785Z,10.40
2019-03-08T12:17:01.862Z,9.90
2019-03-08T12:20:08.045Z,9.60
2019-03-08T12:23:14.986Z,9.30
2019-03-08T12:26:10.004Z,9.10
2019-03-08T12:29:08.928Z,9.10
2019-03-08T12:31:59.627Z,8.90
2019-03-08T12:34:53.682Z,8.90
2019-03-08T12:37:45.037Z,8.90
2019-03-08T12:40:35.894Z,8.70
2019-03-08T12:43:42.423Z,8.60
2019-03-08T12:46:41.611Z,8.50
2019-03-08T12:49:41.379Z,8.30
2019-03-08T12:52:32.023Z,8.50
2019-03-08T12:55:22.598Z,8.90
2019-03-08T12:58:29.227Z,9.10
2019-03-08T13:01:24.989Z,9.30
2019-03-08T13:04:15.323Z,9.60
2019-03-08T13:07:07.208Z,9.70
2019-03-08T13:09:56.682Z,9.80
2019-03-08T13:12:44.977Z,9.80
2019-03-08T13:15:32.903Z,10.20
2019-03-08T13:18:20.959Z,10.00
2019-03-08T13:21:09.313Z,9.80
2019-03-08T13:23:58.160Z,9.50
2019-03-08T13:26:46.456Z,9.30
2019-03-08T13:29:34.960Z,8.90
2019-03-08T13:32:23.281Z,8.70
2019-03-08T13:35:13.721Z,8.40
2019-03-08T13:38:02.063Z,8.30
2019-03-08T13:40:50.613Z,8.30
2019-03-08T13:43:39.122Z,8.40
2019-03-08T13:46:27.478Z,8.50
2019-03-08T13:49:15.648Z,8.50
2019-03-08T13:52:04.036Z,8.50
2019-03-08T13:54:52.444Z,8.70
2019-03-08T13:57:41.265Z,8.90
2019-03-08T14:00:30.683Z,9.00
2019-03-08T14:03:20.025Z,9.20
2019-03-08T14:06:08.776Z,9.40
2019-03-08T14:08:56.497Z,9.60
2019-03-08T14:11:45.403Z,9.30
2019-03-08T14:14:33.899Z,9.40
2019-03-08T14:17:22.616Z,9.30
2019-03-08T14:20:25.074Z,9.30
2019-03-08T14:23:14.054Z,9.10
2019-03-08T14:26:02.602Z,9.00
2019-03-08T14:28:50.624Z,9.10
2019-03-08T14:31:49.276Z,9.30
2019-03-08T14:34:36.183Z,9.30
2019-03-08T14:37:24.189Z,9.30
2019-03-08T14:40:17.133Z,9.30
2019-03-08T14:43:07.841Z,9.20
2019-03-08T14:46:03.211Z,9.30
2019-03-08T14:48:51.904Z,9.10
2019-03-08T14:51:44.770Z,8.80
2019-03-08T14:54:32.030Z,8.70
2019-03-08T14:57:27.236Z,8.50
2019-03-08T15:00:18.410Z,8.50
2019-03-08T15:03:07.686Z,8.60
2019-03-08T15:05:56.713Z,8.70
2019-03-08T15:08:46.429Z,8.80
2019-03-08T15:11:35.821Z,8.80
2019-03-08T15:14:25.067Z,8.70
2019-03-08T15:17:16.811Z,8.70
2019-03-08T15:20:15.128Z,8.60
2019-03-08T15:23:00.440Z,8.60
2019-03-08T15:25:50.535Z,8.80
2019-03-08T15:28:40.307Z,9.10
2019-03-08T15:31:29.645Z,9.10
2019-03-08T15:34:21.408Z,9.00
2019-03-08T15:37:10.018Z,8.80
2019-03-08T15:39:59.438Z,8.60
2019-03-08T15:42:49.104Z,8.40
2019-03-08T15:45:40.144Z,8.20
2019-03-08T15:48:28.162Z,8.20
2019-03-08T15:51:20.848Z,8.30
2019-03-08T15:54:08.455Z,8.30
2019-03-08T15:56:57.550Z,8.30
2019-03-08T15:59:46.882Z,8.30
2019-03-08T16:02:35.707Z,8.30
2019-03-08T16:05:28.065Z,8.20
2019-03-08T16:08:15.410Z,8.20
2019-03-08T16:11:04.779Z,8.00
2019-03-08T16:13:54.234Z,7.90
2019-03-08T16:16:43.625Z,7.80
2019-03-08T16:19:32.697Z,7.70
2019-03-08T16:22:24.869Z,7.70
2019-03-08T16:25:16.049Z,7.50
2019-03-08T16:28:05.818Z,7.50
2019-03-08T16:30:59.283Z,7.40
2019-03-08T16:33:52.922Z,7.40
2019-03-08T16:36:49.195Z,7.30
2019-03-08T16:39:39.167Z,7.20
2019-03-08T16:42:29.468Z,7.10
2019-03-08T16:45:19.707Z,7.10
2019-03-08T16:48:10.270Z,7.00
2019-03-08T16:51:03.741Z,7.00
2019-03-08T16:53:54.997Z,6.90
2019-03-08T16:56:52.476Z,6.90
2019-03-08T16:59:49.256Z,6.90
2019-03-08T17:02:38.803Z,6.90
2019-03-08T17:05:42.096Z,6.90
2019-03-08T17:08:36.220Z,6.80
2019-03-08T17:11:35.466Z,6.80
2019-03-08T17:14:29.025Z,6.80
2019-03-08T17:17:35.124Z,6.80
2019-03-08T17:20:28.318Z,6.80
2019-03-08T17:23:19.221Z,6.70
2019-03-08T17:26:26.127Z,6.60
2019-03-08T17:29:19.564Z,6.50
2019-03-08T17:32:08.176Z,6.40
2019-03-08T17:35:15.640Z,6.30
2019-03-08T17:38:08.813Z,6.20
2019-03-08T17:41:15.445Z,6.10
2019-03-08T17:44:11.519Z,6.00
2019-03-08T17:47:02.829Z,6.00
2019-03-08T17:50:09.892Z,5.90
2019-03-08T17:53:13.192Z,5.90
2019-03-08T17:56:04.270Z,5.90
2019-03-08T17:58:57.703Z,5.80
2019-03-08T18:01:48.554Z,5.80
2019-03-08T18:04:41.673Z,5.80
2019-03-08T18:07:35.246Z,5.80
2019-03-08T18:10:27.954Z,5.80
2019-03-08T18:13:24.178Z,5.80
2019-03-08T18:16:14.439Z,5.90
2019-03-08T18:19:23.556Z,5.90
2019-03-08T18:22:17.204Z,6.00
2019-03-08T18:25:08.920Z,6.10
2019-03-08T18:28:15.604Z,6.20
2019-03-08T18:31:11.447Z,6.20
2019-03-08T18:34:07.643Z,6.20
2019-03-08T18:36:58.253Z,6.20
2019-03-08T18:39:51.772Z,6.20
2019-03-08T18:42:42.307Z,6.10
2019-03-08T18:45:36.462Z,6.20
2019-03-08T18:48:27.930Z,6.20
2019-03-08T18:51:18.434Z,6.30
2019-03-08T18:54:08.912Z,6.30
2019-03-08T18:57:11.000Z,6.40
2019-03-08T19:00:18.601Z,6.50
2019-03-08T19:03:25.256Z,6.50
2019-03-08T19:06:16.675Z,6.60
2019-03-08T19:09:12.525Z,6.60
2019-03-08T19:12:07.251Z,6.60
2019-03-08T19:15:15.940Z,6.60
2019-03-08T19:18:09.685Z,6.60
2019-03-08T19:21:03.999Z,6.60
2019-03-08T19:24:03.514Z,6.60
2019-03-08T19:27:03.222Z,6.60
2019-03-08T19:29:53.943Z,6.50
2019-03-08T19:32:47.803Z,6.50
2019-03-08T19:35:36.405Z,6.50
2019-03-08T19:38:33.072Z,6.50
2019-03-08T19:41:23.765Z,6.50
2019-03-08T19:44:30.313Z,6.50
2019-03-08T19:47:33.266Z,6.50
2019-03-08T19:50:35.572Z,6.30
2019-03-08T19:53:28.394Z,6.20
2019-03-08T19:56:29.542Z,6.00
2019-03-08T19:59:18.343Z,6.00
2019-03-08T20:02:12.074Z,6.00
2019-03-08T20:05:02.343Z,6.00
2019-03-08T20:08:04.681Z,6.10
2019-03-08T20:11:05.440Z,6.10
2019-03-08T20:14:08.618Z,6.20
2019-03-08T20:16:59.280Z,6.20
2019-03-08T20:19:55.748Z,6.30
2019-03-08T20:22:44.986Z,6.30
2019-03-08T20:25:47.233Z,6.30
2019-03-08T20:28:49.331Z,6.40
2019-03-08T20:31:43.221Z,6.40
2019-03-08T20:34:34.427Z,6.40
2019-03-08T20:37:24.661Z,6.40
2019-03-08T20:40:28.225Z,6.40
2019-03-08T20:43:18.329Z,6.40
2019-03-08T20:46:09.419Z,6.40
2019-03-08T20:48:58.472Z,6.50
2019-03-08T20:51:48.134Z,6.50
2019-03-08T20:54:36.928Z,6.50
2019-03-08T20:57:25.675Z,6.50
2019-03-08T21:00:17.683Z,6.50
2019-03-08T21:03:06.909Z,6.60
2019-03-08T21:05:55.850Z,6.60
2019-03-08T21:08:44.824Z,6.50
2019-03-08T21:11:33.748Z,6.50
2019-03-08T21:14:23.254Z,6.50
2019-03-08T21:17:12.713Z,6.50
2019-03-08T21:20:01.287Z,6.60
2019-03-08T21:22:50.949Z,6.60
2019-03-08T21:25:40.096Z,6.60
2019-03-08T21:28:28.880Z,6.70
2019-03-08T21:31:18.366Z,6.70
2019-03-08T21:34:08.018Z,6.70
2019-03-08T21:36:57.574Z,6.60
2019-03-08T21:39:46.659Z,6.60
2019-03-08T21:42:36.905Z,6.60
2019-03-08T21:45:26.433Z,6.50
2019-03-08T21:48:15.653Z,6.40
2019-03-08T21:51:05.383Z,6.30
2019-03-08T21:53:55.978Z,6.30
2019-03-08T21:56:45.423Z,6.30
2019-03-08T21:59:34.520Z,6.30
2019-03-08T22:02:23.826Z,6.30
2019-03-08T22:05:13.984Z,6.20
2019-03-08T22:08:02.882Z,6.30
2019-03-08T22:10:52.222Z,6.20
2019-03-08T22:13:40.816Z,6.20
2019-03-08T22:16:29.936Z,6.20
2019-03-08T22:19:18.795Z,6.30
2019-03-08T22:22:07.746Z,6.30
2019-03-08T22:24:57.324Z,6.30
2019-03-08T22:27:46.181Z,6.30
2019-03-08T22:30:35.759Z,6.30
2019-03-08T22:33:25.094Z,6.30
2019-03-08T22:36:13.795Z,6.30
2019-03-08T22:39:02.673Z,6.20
2019-03-08T22:41:51.920Z,6.20
2019-03-08T22:44:41.899Z,6.20
2019-03-08T22:47:31.568Z,6.20
2019-03-08T22:50:20.116Z,6.10
2019-03-08T22:53:09.403Z,6.20
2019-03-08T22:55:58.945Z,6.20
2019-03-08T22:58:48.226Z,6.10
2019-03-08T23:01:42.230Z,6.20
2019-03-08T23:04:31.077Z,6.30
2019-03-08T23:07:20.262Z,6.40
2019-03-08T23:10:12.965Z,6.40
2019-03-08T23:13:02.079Z,6.50
2019-03-08T23:15:51.108Z,6.50
2019-03-08T23:18:40.310Z,6.60
2019-03-08T23:21:29.593Z,6.50
2019-03-08T23:24:19.053Z,6.60
2019-03-08T23:27:15.764Z,6.50
2019-03-08T23:30:10.323Z,6.50
2019-03-08T23:32:59.558Z,6.40
2019-03-08T23:35:48.279Z,6.40
2019-03-08T23:38:37.688Z,6.30
2019-03-08T23:41:26.434Z,6.30
2019-03-08T23:44:15.298Z,6.40
2019-03-08T23:47:04.724Z,6.40
2019-03-08T23:49:54.173Z,6.40
2019-03-08T23:52:42.830Z,6.40
2019-03-08T23:55:32.375Z,6.40
2019-03-08T23:58:21.889Z,6.40
